20 a 28/2 - Tormentas generalizadas en casi todo el país, sigue el calor N (granizo grande Santa Fe)

Avatar de Usuario
Diecha
Mensajes: 20023
Registrado: Jue Ago 25, 2011 9:31 pm
Ubicación: Lomas de Zamora

Re: 20 a 28/2 - Lluvias y tormentas más generalizadas especialmente Cuyo, Patagonia, N

Mensaje por Diecha »

Avatar de Usuario
Ernest
Mensajes: 16132
Registrado: Vie Jul 17, 2009 10:54 pm
Ubicación: Balvanera, CABA

Re: 20 a 28/2 - Tormentas generalizadas en casi todo el país, sigue el calor N

Mensaje por Ernest »

Ahí modifiqué el título para que sea más descriptivo, igual ya mañana abro thread nuevo.
Did you want to talk about the weather, or were you just making chitchat?

Twitter: @ErnestoAtmoII
Avatar de Usuario
Diecha
Mensajes: 20023
Registrado: Jue Ago 25, 2011 9:31 pm
Ubicación: Lomas de Zamora

Re: 20 a 28/2 - Tormentas generalizadas en casi todo el país, sigue el calor N (granizo grande Santa Fe)

Mensaje por Diecha »







- Posadas 14 hs: SARP 281700Z 32018KT 9999 SCT030TCU SCT050 BKN200 38/23 Q1006
- Posadas 14:08 hs: SARP 281708Z 23022G45KT 0800 DS VCTS SCT030CB BKN050 BKN200 35/24 Q1008 (ráfaga de 83 Km/h)
- Posadas 15 hs: SARP 281800Z 11020KT 9999 -TSRA FEW030 FEW040CB BKN050 OVC200 23/22 Q1009 REDS RMK CB OBS TO NE
Avatar de Usuario
Ernest
Mensajes: 16132
Registrado: Vie Jul 17, 2009 10:54 pm
Ubicación: Balvanera, CABA

Re: 20 a 28/2 - Tormentas generalizadas en casi todo el país, sigue el calor N (granizo grande Santa Fe)

Mensaje por Ernest »

Sigue cayendo la humedad por la zona del AMBA, en Savio T 25,8 - Td 9,7 (HR 36 %). La tarde está para pileta "hasta ahí".
Did you want to talk about the weather, or were you just making chitchat?

Twitter: @ErnestoAtmoII
Avatar de Usuario
Diecha
Mensajes: 20023
Registrado: Jue Ago 25, 2011 9:31 pm
Ubicación: Lomas de Zamora

Re: 20 a 28/2 - Tormentas generalizadas en casi todo el país, sigue el calor N (granizo grande Santa Fe)

Mensaje por Diecha »





Imagen
Avatar de Usuario
Ale de Castelar
Mensajes: 32510
Registrado: Sab Mar 03, 2012 12:25 pm
Ubicación: Caballito

Re: 20 a 28/2 - Tormentas generalizadas en casi todo el país, sigue el calor N (granizo grande Santa Fe)

Mensaje por Ale de Castelar »

Seclantas

Avatar de Usuario
Diecha
Mensajes: 20023
Registrado: Jue Ago 25, 2011 9:31 pm
Ubicación: Lomas de Zamora

Re: 20 a 28/2 - Tormentas generalizadas en casi todo el país, sigue el calor N (granizo grande Santa Fe)

Mensaje por Diecha »


Avatar de Usuario
Ale de Castelar
Mensajes: 32510
Registrado: Sab Mar 03, 2012 12:25 pm
Ubicación: Caballito

Re: 20 a 28/2 - Tormentas generalizadas en casi todo el país, sigue el calor N (granizo grande Santa Fe)

Mensaje por Ale de Castelar »

Corrientes

Avatar de Usuario
Diecha
Mensajes: 20023
Registrado: Jue Ago 25, 2011 9:31 pm
Ubicación: Lomas de Zamora

Re: 20 a 28/2 - Tormentas generalizadas en casi todo el país, sigue el calor N (granizo grande Santa Fe)

Mensaje por Diecha »

Imagen

Imagen
Spoiler
Imagen
Imagen
Imagen
Imagen
Imagen
Imagen
Imagen
Imagen
Imagen
Imagen
Imagen
Imagen
Última edición por Diecha el Lun Feb 28, 2022 8:31 pm, editado 1 vez en total.
Avatar de Usuario
Ezequiel15
Mensajes: 14414
Registrado: Lun Ene 23, 2012 4:18 pm
Ubicación: Ramos Mejia

Re: 20 a 28/2 - Tormentas generalizadas en casi todo el país, sigue el calor N (granizo grande Santa Fe)

Mensaje por Ezequiel15 »

8,8°C el Td en OCBA, a las 9 de la mañana era de 20,3°C